Time;durP1;ratioP1;P1;durP2;ratioP2;P2;SDS_P1;SDS_P2;PMS_P1;PMS_P2;Temp;Humidity;BMP_temperature;BMP_pressure;BME280_temperature;BME280_humidity;BME280_pressure;Samples;Min_cycle;Max_cycle;Signal;HPM_P1;HPM_P2
2022/10/14 00:01:08;;;;;;;12.10;6.07;;;;;;;;;;6145697;23;20010;-80
2022/10/14 00:03:53;;;;;;;11.77;5.05;;;;;;;;;;6145819;23;20017;-78
2022/10/14 00:06:38;;;;;;;11.95;5.50;;;;;;;;;;6149926;23;20432;-82
2022/10/14 00:09:24;;;;;;;15.82;5.57;;;;;;;;;;6146407;23;20118;-78
2022/10/14 00:12:09;;;;;;;10.70;5.90;;;;;;;;;;6145453;23;20074;-80
2022/10/14 00:14:55;;;;;;;13.95;5.85;;;;;;;;;;6144681;23;20001;-76
2022/10/14 00:17:40;;;;;;;7.97;5.47;;;;;;;;;;6122702;23;20480;-73
2022/10/14 00:20:28;;;;;;;10.15;5.32;;;;;;;;;;6143808;23;20044;-76
2022/10/14 00:23:13;;;;;;;10.73;5.57;;;;;;;;;;6143728;23;20014;-74
2022/10/14 00:25:58;;;;;;;11.52;5.70;;;;;;;;;;6149023;23;20089;-74
2022/10/14 00:28:44;;;;;;;10.65;5.38;;;;;;;;;;6144231;23;20496;-72
2022/10/14 00:31:30;;;;;;;9.48;6.13;;;;;;;;;;6143118;23;20009;-76
2022/10/14 00:34:15;;;;;;;9.55;5.53;;;;;;;;;;6143994;23;20053;-73
2022/10/14 00:37:00;;;;;;;12.80;6.28;;;;;;;;;;6143691;23;20005;-79
2022/10/14 00:39:45;;;;;;;11.95;5.70;;;;;;;;;;6152193;23;20060;-80
2022/10/14 00:42:32;;;;;;;13.48;5.45;;;;;;;;;;6140310;23;20005;-79
2022/10/14 00:45:21;;;;;;;11.02;6.10;;;;;;;;;;6143597;23;20002;-82
2022/10/14 00:48:06;;;;;;;;;;;;;;;;;;6143671;22;20337;-78
2022/10/14 00:50:53;;;;;;;14.77;6.43;;;;;;;;;;6163947;23;19916;-72
2022/10/14 00:53:41;;;;;;;10.02;5.00;;;;;;;;;;6142451;23;20040;-74
2022/10/14 00:56:27;;;;;;;12.85;6.15;;;;;;;;;;6142207;23;20010;-72
2022/10/14 00:59:13;;;;;;;12.73;5.22;;;;;;;;;;6152079;23;20013;-73
2022/10/14 01:01:58;;;;;;;9.55;4.60;;;;;;;;;;6144451;23;20012;-72
2022/10/14 01:04:44;;;;;;;6.47;4.63;;;;;;;;;;6143708;23;20063;-73
2022/10/14 01:07:42;;;;;;;11.13;5.47;;;;;;;;;;6142208;23;20002;-72
2022/10/14 01:10:36;;;;;;;12.98;5.38;;;;;;;;;;6143337;22;20425;-71
2022/10/14 01:13:21;;;;;;;10.05;5.13;;;;;;;;;;6143107;23;20391;-72
2022/10/14 01:16:12;;;;;;;8.85;5.22;;;;;;;;;;6143482;23;20005;-73
2022/10/14 01:19:01;;;;;;;11.38;5.50;;;;;;;;;;6142623;23;19999;-72
2022/10/14 01:21:59;;;;;;;9.25;4.85;;;;;;;;;;6142572;23;20339;-72
2022/10/14 01:24:47;;;;;;;12.60;5.55;;;;;;;;;;6143495;23;20237;-72
2022/10/14 01:27:36;;;;;;;8.73;4.60;;;;;;;;;;6143371;23;20001;-73
2022/10/14 01:30:22;;;;;;;8.38;5.20;;;;;;;;;;6149787;23;20048;-69
2022/10/14 01:33:10;;;;;;;11.10;5.20;;;;;;;;;;6143197;23;20009;-71
2022/10/14 01:35:55;;;;;;;11.38;6.15;;;;;;;;;;6143820;23;20105;-71
2022/10/14 01:38:46;;;;;;;10.52;4.43;;;;;;;;;;6142361;23;20006;-71
2022/10/14 01:41:34;;;;;;;12.27;5.55;;;;;;;;;;6143465;23;20081;-71
2022/10/14 01:44:21;;;;;;;11.43;5.30;;;;;;;;;;6123007;23;20002;-72
2022/10/14 01:47:07;;;;;;;8.65;5.35;;;;;;;;;;6143257;23;20009;-69
2022/10/14 01:49:55;;;;;;;10.07;5.43;;;;;;;;;;6142739;23;20079;-72
2022/10/14 01:52:47;;;;;;;12.27;5.00;;;;;;;;;;6143000;23;20009;-71
2022/10/14 01:55:35;;;;;;;14.30;5.93;;;;;;;;;;6143662;23;20060;-74
2022/10/14 01:58:22;;;;;;;8.07;5.13;;;;;;;;;;6143599;23;20005;-73
2022/10/14 02:01:08;;;;;;;9.40;5.68;;;;;;;;;;6145311;23;20020;-72
2022/10/14 02:03:53;;;;;;;8.93;5.03;;;;;;;;;;6147857;23;19997;-73
2022/10/14 02:06:41;;;;;;;9.00;4.70;;;;;;;;;;6142983;23;20459;-76
2022/10/14 02:09:45;;;;;;;8.68;4.90;;;;;;;;;;6122230;23;20056;-78
2022/10/14 02:12:39;;;;;;;10.68;5.95;;;;;;;;;;6143101;23;20465;-77
2022/10/14 02:15:41;;;;;;;11.50;5.43;;;;;;;;;;6214568;23;19996;-78
2022/10/14 02:18:32;;;;;;;11.38;5.25;;;;;;;;;;6194993;23;20221;-76
2022/10/14 02:21:20;;;;;;;8.98;4.50;;;;;;;;;;6193356;23;20087;-77
2022/10/14 02:24:11;;;;;;;11.80;5.78;;;;;;;;;;6193509;23;20467;-73
2022/10/14 02:26:59;;;;;;;18.80;5.95;;;;;;;;;;6215999;23;20000;-76
2022/10/14 02:29:45;;;;;;;10.00;4.50;;;;;;;;;;6214853;23;20004;-75
2022/10/14 02:32:31;;;;;;;10.82;5.57;;;;;;;;;;6214968;23;20016;-76
2022/10/14 02:35:17;;;;;;;9.82;4.97;;;;;;;;;;6222566;23;20031;-75
2022/10/14 02:38:04;;;;;;;15.88;5.38;;;;;;;;;;6214865;23;20291;-76
2022/10/14 02:40:49;;;;;;;14.98;7.28;;;;;;;;;;6214346;23;20015;-75
2022/10/14 02:43:34;;;;;;;10.63;5.82;;;;;;;;;;6193774;23;20127;-72
2022/10/14 02:46:20;;;;;;;12.80;5.57;;;;;;;;;;6166453;23;20013;-71
2022/10/14 02:49:05;;;;;;;12.65;6.47;;;;;;;;;;6143243;23;20450;-71
2022/10/14 02:51:51;;;;;;;9.30;5.85;;;;;;;;;;6141477;23;20471;-70
2022/10/14 02:54:36;;;;;;;12.10;5.63;;;;;;;;;;6142227;23;20010;-71
2022/10/14 02:57:21;;;;;;;9.90;5.50;;;;;;;;;;6142555;23;20005;-70
2022/10/14 03:00:07;;;;;;;13.60;6.10;;;;;;;;;;6142697;23;20080;-75
2022/10/14 03:02:53;;;;;;;11.85;6.22;;;;;;;;;;6143455;23;20422;-73
2022/10/14 03:05:38;;;;;;;13.20;6.45;;;;;;;;;;6146095;23;20061;-71
2022/10/14 03:08:23;;;;;;;12.18;5.63;;;;;;;;;;6145655;23;20005;-73
2022/10/14 03:11:09;;;;;;;11.88;6.80;;;;;;;;;;6142820;23;20013;-74
2022/10/14 03:13:54;;;;;;;11.30;5.53;;;;;;;;;;6142792;23;20425;-72
2022/10/14 03:16:39;;;;;;;13.00;5.68;;;;;;;;;;6141518;23;20055;-72
2022/10/14 03:19:24;;;;;;;11.57;5.75;;;;;;;;;;6142972;23;19997;-72
2022/10/14 03:22:10;;;;;;;10.52;5.05;;;;;;;;;;6142301;23;20356;-73
2022/10/14 03:24:55;;;;;;;14.73;6.55;;;;;;;;;;6142568;23;19998;-73
2022/10/14 03:27:40;;;;;;;9.95;5.78;;;;;;;;;;6142931;23;20183;-75
2022/10/14 03:30:25;;;;;;;10.60;6.60;;;;;;;;;;6142803;23;20038;-74
2022/10/14 03:33:11;;;;;;;14.88;6.00;;;;;;;;;;6142415;23;20067;-73
2022/10/14 03:35:56;;;;;;;14.18;6.07;;;;;;;;;;6141937;23;20040;-72
2022/10/14 03:38:41;;;;;;;9.75;5.40;;;;;;;;;;6150078;23;20215;-75
2022/10/14 03:41:26;;;;;;;10.75;6.32;;;;;;;;;;6122276;23;20015;-76
2022/10/14 03:44:12;;;;;;;12.07;5.75;;;;;;;;;;6141932;23;20043;-76
2022/10/14 03:46:57;;;;;;;13.13;6.00;;;;;;;;;;6143226;23;20005;-75
2022/10/14 03:49:42;;;;;;;11.88;5.43;;;;;;;;;;6143583;23;20021;-78
2022/10/14 03:52:27;;;;;;;9.18;5.60;;;;;;;;;;6142182;23;20151;-76
2022/10/14 03:55:13;;;;;;;14.00;5.68;;;;;;;;;;6142555;23;20037;-72
2022/10/14 03:57:58;;;;;;;10.85;5.78;;;;;;;;;;6140932;23;20327;-71
2022/10/14 04:00:43;;;;;;;12.60;5.68;;;;;;;;;;6122468;23;20010;-72
2022/10/14 04:03:29;;;;;;;15.60;5.72;;;;;;;;;;6141356;23;20001;-70
2022/10/14 04:06:14;;;;;;;8.25;4.97;;;;;;;;;;6142892;23;20517;-72
2022/10/14 04:08:59;;;;;;;10.10;5.78;;;;;;;;;;6143023;23;20013;-73
2022/10/14 04:11:44;;;;;;;9.63;5.35;;;;;;;;;;6148574;23;20025;-73
2022/10/14 04:14:30;;;;;;;12.45;5.45;;;;;;;;;;6141479;23;20005;-73
2022/10/14 04:17:15;;;;;;;17.75;7.00;;;;;;;;;;6141751;23;20093;-71
2022/10/14 04:20:00;;;;;;;10.35;7.18;;;;;;;;;;6142118;23;20414;-71
2022/10/14 04:22:45;;;;;;;13.45;5.32;;;;;;;;;;6142332;23;20070;-72
2022/10/14 04:25:31;;;;;;;13.35;6.18;;;;;;;;;;6121798;23;20306;-70
2022/10/14 04:28:16;;;;;;;11.02;5.97;;;;;;;;;;6142532;23;20008;-70
2022/10/14 04:31:01;;;;;;;14.10;6.00;;;;;;;;;;6141925;23;20009;-78
2022/10/14 04:33:47;;;;;;;14.40;6.05;;;;;;;;;;6141622;23;20005;-75
2022/10/14 04:36:32;;;;;;;11.25;5.32;;;;;;;;;;6142042;23;20426;-73
2022/10/14 04:39:17;;;;;;;11.32;5.43;;;;;;;;;;6141128;23;20439;-73
2022/10/14 04:42:03;;;;;;;11.52;5.88;;;;;;;;;;6147266;23;20013;-74
2022/10/14 04:44:49;;;;;;;12.60;5.75;;;;;;;;;;6144105;23;20001;-73
2022/10/14 04:47:34;;;;;;;11.48;5.90;;;;;;;;;;6145372;23;20040;-75
2022/10/14 04:50:19;;;;;;;12.10;6.15;;;;;;;;;;6144506;23;20433;-74
2022/10/14 04:53:05;;;;;;;13.77;6.03;;;;;;;;;;6144639;23;20081;-72
2022/10/14 04:55:50;;;;;;;11.18;5.45;;;;;;;;;;6145096;23;20016;-73
2022/10/14 04:58:35;;;;;;;8.85;5.68;;;;;;;;;;6145320;23;20013;-73
2022/10/14 05:01:21;;;;;;;10.85;5.78;;;;;;;;;;6143955;23;20432;-72
2022/10/14 05:04:06;;;;;;;10.38;5.15;;;;;;;;;;6144063;23;20006;-72
2022/10/14 05:06:51;;;;;;;10.27;6.25;;;;;;;;;;6145068;23;20005;-71
2022/10/14 05:09:36;;;;;;;13.23;6.75;;;;;;;;;;6144366;23;20006;-72
2022/10/14 05:12:21;;;;;;;9.23;5.80;;;;;;;;;;6144865;23;20437;-72
2022/10/14 05:15:07;;;;;;;15.75;7.25;;;;;;;;;;6152078;23;20005;-71
2022/10/14 05:17:52;;;;;;;15.13;6.28;;;;;;;;;;6144700;23;20008;-72
2022/10/14 05:20:37;;;;;;;10.30;5.80;;;;;;;;;;6145064;23;20005;-74
2022/10/14 05:23:23;;;;;;;14.68;7.07;;;;;;;;;;6143837;23;20001;-73
2022/10/14 05:26:09;;;;;;;14.73;6.63;;;;;;;;;;6144906;23;20037;-76
2022/10/14 05:28:54;;;;;;;13.07;7.88;;;;;;;;;;6144172;23;20317;-73
2022/10/14 05:31:40;;;;;;;16.73;6.63;;;;;;;;;;6144307;23;20100;-74
2022/10/14 05:34:25;;;;;;;11.98;6.45;;;;;;;;;;6144465;23;20005;-73
2022/10/14 05:37:10;;;;;;;9.50;6.57;;;;;;;;;;6142442;23;20435;-73
2022/10/14 05:39:55;;;;;;;12.07;6.20;;;;;;;;;;6143496;23;20012;-73
2022/10/14 05:42:40;;;;;;;16.27;6.68;;;;;;;;;;6144154;23;20014;-73
2022/10/14 05:45:26;;;;;;;14.07;7.88;;;;;;;;;;6146724;23;20001;-80
2022/10/14 05:48:11;;;;;;;12.27;6.50;;;;;;;;;;6147172;23;20071;-72
2022/10/14 05:51:00;;;;;;;12.68;7.00;;;;;;;;;;6143344;23;20123;-71
2022/10/14 05:53:46;;;;;;;13.23;8.20;;;;;;;;;;6142311;23;20624;-73
2022/10/14 05:56:31;;;;;;;14.77;7.68;;;;;;;;;;6143762;23;20079;-71
2022/10/14 05:59:16;;;;;;;15.65;8.07;;;;;;;;;;6143599;23;20016;-71
2022/10/14 06:02:01;;;;;;;16.23;7.97;;;;;;;;;;6143863;23;20006;-73
2022/10/14 06:04:46;;;;;;;23.30;8.88;;;;;;;;;;6144095;23;20005;-68
2022/10/14 06:07:33;;;;;;;11.68;7.63;;;;;;;;;;6143720;23;20009;-64
2022/10/14 06:10:19;;;;;;;18.58;7.72;;;;;;;;;;6139388;23;20001;-66
2022/10/14 06:13:04;;;;;;;15.02;7.70;;;;;;;;;;6141219;23;20391;-70
2022/10/14 06:15:49;;;;;;;14.52;7.97;;;;;;;;;;6138987;23;20014;-71
2022/10/14 06:18:35;;;;;;;15.38;7.25;;;;;;;;;;6150045;23;20075;-71
2022/10/14 06:21:20;;;;;;;15.70;7.50;;;;;;;;;;6140415;22;20437;-72
2022/10/14 06:24:05;;;;;;;12.90;8.07;;;;;;;;;;6142653;23;20085;-74
2022/10/14 06:26:51;;;;;;;14.30;8.18;;;;;;;;;;6144212;23;20084;-72
2022/10/14 06:29:39;;;;;;;10.48;7.07;;;;;;;;;;6145212;23;20020;-72
2022/10/14 06:32:24;;;;;;;12.38;7.68;;;;;;;;;;6142693;23;20009;-72
2022/10/14 06:35:10;;;;;;;14.18;7.07;;;;;;;;;;6122722;23;20029;-72
2022/10/14 06:37:55;;;;;;;14.52;7.72;;;;;;;;;;6142078;23;20009;-72
2022/10/14 06:40:40;;;;;;;13.60;7.00;;;;;;;;;;6143277;23;19998;-72
2022/10/14 06:43:25;;;;;;;14.65;6.30;;;;;;;;;;6143135;23;20211;-71
2022/10/14 06:46:11;;;;;;;11.02;7.15;;;;;;;;;;6141909;23;20427;-71
2022/10/14 06:48:56;;;;;;;15.85;8.23;;;;;;;;;;6141326;23;20045;-74
2022/10/14 06:51:41;;;;;;;15.00;6.93;;;;;;;;;;6149149;23;20025;-72
2022/10/14 06:54:26;;;;;;;13.23;6.85;;;;;;;;;;6121499;23;20002;-73
2022/10/14 06:57:11;;;;;;;12.50;7.00;;;;;;;;;;6141500;23;20013;-71
2022/10/14 06:59:57;;;;;;;15.27;7.55;;;;;;;;;;6142428;23;20012;-85
2022/10/14 07:02:43;;;;;;;15.70;7.43;;;;;;;;;;6142047;23;20441;-73
2022/10/14 07:05:28;;;;;;;16.20;8.48;;;;;;;;;;6142283;22;20479;-75
2022/10/14 07:08:14;;;;;;;10.32;6.35;;;;;;;;;;6141787;23;20059;-76
2022/10/14 07:10:59;;;;;;;14.07;7.18;;;;;;;;;;6141871;23;20072;-74
2022/10/14 07:13:44;;;;;;;17.48;7.68;;;;;;;;;;6141967;23;20433;-74
2022/10/14 07:16:30;;;;;;;16.48;7.53;;;;;;;;;;6143513;23;20070;-75
2022/10/14 07:19:15;;;;;;;12.75;6.50;;;;;;;;;;6143319;23;20005;-81
2022/10/14 07:21:45;;;;;;;13.10;6.85;;;;;;;;;;6147196;23;20014;-73
2022/10/14 07:24:10;;;;;;;13.57;7.93;;;;;;;;;;6148274;23;20001;-75
2022/10/14 07:26:36;;;;;;;20.60;8.15;;;;;;;;;;6145856;23;20499;-72
2022/10/14 07:29:03;;;;;;;11.93;7.53;;;;;;;;;;6145857;23;20005;-74
2022/10/14 07:31:28;;;;;;;13.20;7.40;;;;;;;;;;6146658;23;20032;-72
2022/10/14 07:33:54;;;;;;;15.48;7.25;;;;;;;;;;6144750;23;20010;-74
2022/10/14 07:36:19;;;;;;;14.93;7.60;;;;;;;;;;6145913;23;20005;-79
2022/10/14 07:38:44;;;;;;;15.03;7.83;;;;;;;;;;6145052;23;20484;-71
2022/10/14 07:41:15;;;;;;;17.40;8.05;;;;;;;;;;6142887;23;20298;-72
2022/10/14 07:43:51;;;;;;;13.98;7.20;;;;;;;;;;6144910;23;20100;-72
2022/10/14 07:46:27;;;;;;;17.60;6.68;;;;;;;;;;6145834;23;20017;-73
2022/10/14 07:48:52;;;;;;;13.05;7.15;;;;;;;;;;6148226;23;20036;-74
2022/10/14 07:51:18;;;;;;;19.40;7.68;;;;;;;;;;6142704;22;20515;-73
2022/10/14 07:53:43;;;;;;;15.70;6.47;;;;;;;;;;6144999;23;20117;-62
2022/10/14 07:56:08;;;;;;;13.30;7.50;;;;;;;;;;6145727;23;20463;-69
2022/10/14 07:58:33;;;;;;;11.55;6.35;;;;;;;;;;6141256;23;20516;-62
2022/10/14 08:00:59;;;;;;;11.53;7.23;;;;;;;;;;6138169;23;20020;-63
2022/10/14 08:03:24;;;;;;;17.50;7.85;;;;;;;;;;6139718;23;20010;-62
2022/10/14 08:05:50;;;;;;;11.23;6.57;;;;;;;;;;6143000;23;20009;-62
2022/10/14 08:08:16;;;;;;;18.15;6.63;;;;;;;;;;6141338;23;20005;-65
2022/10/14 08:10:41;;;;;;;13.93;6.68;;;;;;;;;;6143214;23;20021;-63
2022/10/14 08:13:07;;;;;;;12.02;5.45;;;;;;;;;;6141096;23;20096;-69
2022/10/14 08:15:37;;;;;;;9.20;6.60;;;;;;;;;;6138118;23;20020;-71
2022/10/14 08:18:02;;;;;;;13.13;6.63;;;;;;;;;;6139756;23;20378;-71
2022/10/14 08:20:48;;;;;;;10.73;7.13;;;;;;;;;;6123740;23;20040;-69
2022/10/14 08:23:33;;;;;;;12.57;5.47;;;;;;;;;;6146700;23;20005;-69
2022/10/14 08:26:21;;;;;;;9.13;4.50;;;;;;;;;;6152891;23;20009;-70
2022/10/14 08:29:09;;;;;;;9.98;5.80;;;;;;;;;;6146499;23;20018;-70
2022/10/14 08:31:54;;;;;;;11.50;5.85;;;;;;;;;;6145953;23;20088;-67
2022/10/14 08:34:39;;;;;;;10.63;5.22;;;;;;;;;;6146162;23;20008;-60
2022/10/14 08:37:24;;;;;;;8.90;5.50;;;;;;;;;;6145045;23;20456;-60
2022/10/14 08:40:14;;;;;;;9.40;5.25;;;;;;;;;;6145581;23;20002;-63
2022/10/14 08:43:05;;;;;;;8.25;4.40;;;;;;;;;;6146266;23;20037;-64
2022/10/14 08:45:54;;;;;;;7.82;4.72;;;;;;;;;;6146803;23;20429;-60
2022/10/14 08:48:39;;;;;;;9.60;4.88;;;;;;;;;;6146722;23;19998;-66
2022/10/14 08:51:26;;;;;;;9.18;4.40;;;;;;;;;;6146757;23;20409;-64
2022/10/14 08:54:17;;;;;;;8.82;4.18;;;;;;;;;;6143935;23;20067;-68
2022/10/14 08:57:03;;;;;;;8.68;4.05;;;;;;;;;;6146785;23;20006;-71
2022/10/14 08:59:48;;;;;;;7.70;3.75;;;;;;;;;;6150071;23;20078;-69
2022/10/14 09:02:41;;;;;;;10.18;4.20;;;;;;;;;;6144617;23;20392;-66
2022/10/14 09:05:26;;;;;;;8.82;4.00;;;;;;;;;;6145563;23;20341;-77
2022/10/14 09:08:14;;;;;;;6.80;3.97;;;;;;;;;;6145039;23;20104;-82
2022/10/14 09:11:00;;;;;;;9.02;4.05;;;;;;;;;;6143848;23;20419;-72
2022/10/14 09:14:11;;;;;;;10.65;4.15;;;;;;;;;;6125067;23;20016;-75
2022/10/14 09:17:03;;;;;;;7.47;3.03;;;;;;;;;;6124770;22;20010;-74
2022/10/14 09:19:57;;;;;;;7.63;3.17;;;;;;;;;;6144562;23;20001;-74
2022/10/14 09:22:43;;;;;;;7.90;3.65;;;;;;;;;;6144413;23;20013;-74
2022/10/14 09:25:31;;;;;;;5.70;3.28;;;;;;;;;;6124400;23;20392;-72
2022/10/14 09:28:18;;;;;;;7.40;3.47;;;;;;;;;;6145320;23;20347;-77
2022/10/14 09:31:04;;;;;;;5.95;3.45;;;;;;;;;;6152156;23;20428;-76
2022/10/14 09:33:49;;;;;;;7.78;3.63;;;;;;;;;;6145360;23;20006;-76
2022/10/14 09:36:34;;;;;;;7.30;3.20;;;;;;;;;;6124518;23;20325;-78
2022/10/14 09:39:20;;;;;;;5.95;3.22;;;;;;;;;;6145437;23;20009;-83
2022/10/14 09:42:13;;;;;;;7.90;3.42;;;;;;;;;;6145638;23;20002;-82
2022/10/14 09:45:07;;;;;;;7.10;3.30;;;;;;;;;;6144952;23;20017;-71
2022/10/14 09:47:55;;;;;;;4.63;2.97;;;;;;;;;;6145721;23;20005;-72
2022/10/14 09:50:42;;;;;;;10.60;3.33;;;;;;;;;;6123183;23;20036;-71
2022/10/14 09:53:29;;;;;;;5.45;2.80;;;;;;;;;;6145725;23;20021;-71
2022/10/14 09:56:15;;;;;;;7.50;3.35;;;;;;;;;;6142890;23;20479;-70
2022/10/14 09:59:01;;;;;;;6.72;3.42;;;;;;;;;;6143712;23;20051;-73
2022/10/14 10:01:54;;;;;;;7.20;3.22;;;;;;;;;;6147733;23;20024;-68
2022/10/14 10:04:46;;;;;;;5.57;3.00;;;;;;;;;;6145798;23;20438;-73
2022/10/14 10:07:33;;;;;;;9.85;3.05;;;;;;;;;;6144202;23;20460;-72
2022/10/14 10:10:20;;;;;;;6.93;3.15;;;;;;;;;;6123483;23;20443;-71
2022/10/14 10:13:30;;;;;;;8.20;3.05;;;;;;;;;;6145236;23;20016;-71
2022/10/14 10:16:24;;;;;;;7.32;3.45;;;;;;;;;;6144903;23;20441;-73
2022/10/14 10:19:30;;;;;;;11.32;3.33;;;;;;;;;;6123491;23;20013;-74
2022/10/14 10:22:18;;;;;;;5.95;3.00;;;;;;;;;;6144815;23;20021;-72
2022/10/14 10:25:04;;;;;;;7.00;2.80;;;;;;;;;;6144226;23;20385;-82
2022/10/14 10:27:51;;;;;;;7.18;3.08;;;;;;;;;;6144485;23;20013;-79
2022/10/14 10:30:42;;;;;;;7.20;3.33;;;;;;;;;;6144185;23;20025;-78
2022/10/14 10:33:33;;;;;;;7.43;3.03;;;;;;;;;;6127156;23;20026;-81
2022/10/14 10:36:27;;;;;;;6.05;3.28;;;;;;;;;;6147882;23;20014;-79
2022/10/14 10:39:23;;;;;;;3.78;2.67;;;;;;;;;;6143947;22;20092;-70
2022/10/14 10:42:14;;;;;;;5.88;2.95;;;;;;;;;;6144373;23;20021;-72
2022/10/14 10:45:27;;;;;;;6.68;2.40;;;;;;;;;;6144503;23;20040;-68
2022/10/14 10:48:22;;;;;;;7.72;3.35;;;;;;;;;;6142711;23;20059;-72
2022/10/14 10:51:34;;;;;;;4.88;2.83;;;;;;;;;;6142832;23;20037;-66
2022/10/14 10:54:26;;;;;;;5.90;2.83;;;;;;;;;;6142853;23;20097;-73
2022/10/14 10:57:29;;;;;;;4.80;2.72;;;;;;;;;;6124404;23;20018;-69
2022/10/14 11:00:19;;;;;;;5.15;2.70;;;;;;;;;;6144963;23;20010;-68
2022/10/14 11:03:14;;;;;;;5.15;2.75;;;;;;;;;;6151334;23;20021;-78
2022/10/14 11:06:10;;;;;;;5.38;3.28;;;;;;;;;;6176563;23;20053;-79
2022/10/14 11:12:19;;;;;;;6.45;2.65;;;;;;;;;;6100324;23;20048;-78
2022/10/14 11:15:07;;;;;;;8.75;3.10;;;;;;;;;;6114756;23;20043;-80
2022/10/14 11:18:04;;;;;;;6.85;3.25;;;;;;;;;;6111770;23;20081;-71
2022/10/14 11:21:11;;;;;;;5.35;3.00;;;;;;;;;;6093962;23;20431;-73
2022/10/14 11:24:04;;;;;;;6.97;3.30;;;;;;;;;;6093521;23;20377;-73
2022/10/14 11:26:58;;;;;;;5.85;3.17;;;;;;;;;;6071279;23;20060;-71
2022/10/14 11:30:09;;;;;;;6.15;3.20;;;;;;;;;;6111814;23;20417;-71
2022/10/14 11:33:05;;;;;;;6.22;2.97;;;;;;;;;;6092245;23;20382;-72
2022/10/14 11:36:13;;;;;;;6.43;3.40;;;;;;;;;;6113628;23;20036;-69
2022/10/14 11:39:17;;;;;;;4.70;2.88;;;;;;;;;;6108926;23;20003;-71
2022/10/14 11:42:12;;;;;;;5.38;3.22;;;;;;;;;;6144257;23;20002;-70
2022/10/14 11:45:27;;;;;;;8.85;3.55;;;;;;;;;;6142909;23;20364;-71
2022/10/14 11:48:21;;;;;;;5.00;2.95;;;;;;;;;;6145495;22;20017;-71
2022/10/14 11:51:14;;;;;;;5.18;3.10;;;;;;;;;;6143413;23;20013;-70
2022/10/14 11:54:21;;;;;;;5.10;2.90;;;;;;;;;;6123299;23;20036;-68
2022/10/14 11:57:21;;;;;;;7.38;3.25;;;;;;;;;;6144950;23;19997;-68
2022/10/14 12:00:25;;;;;;;8.57;3.17;;;;;;;;;;6143088;23;20033;-71
2022/10/14 12:03:22;;;;;;;9.10;3.28;;;;;;;;;;6143843;23;20081;-67
2022/10/14 12:06:24;;;;;;;6.68;3.25;;;;;;;;;;6143749;23;20017;-68
2022/10/14 12:09:28;;;;;;;7.18;2.78;;;;;;;;;;6126370;23;20013;-68
2022/10/14 12:12:16;;;;;;;7.70;3.00;;;;;;;;;;6149028;23;20002;-72
2022/10/14 12:15:06;;;;;;;9.80;3.15;;;;;;;;;;6150422;23;20037;-79
2022/10/14 12:17:51;;;;;;;9.25;2.70;;;;;;;;;;6153269;23;20418;-80
2022/10/14 12:20:43;;;;;;;6.72;2.78;;;;;;;;;;6145429;23;20448;-79
2022/10/14 12:23:32;;;;;;;6.68;2.67;;;;;;;;;;6145914;23;20017;-79
2022/10/14 12:26:23;;;;;;;7.17;2.83;;;;;;;;;;6146150;23;20006;-79
2022/10/14 12:29:11;;;;;;;5.45;2.55;;;;;;;;;;6124403;23;20329;-82
2022/10/14 12:32:02;;;;;;;7.03;2.20;;;;;;;;;;6123985;23;20473;-68
2022/10/14 12:34:49;;;;;;;6.35;3.13;;;;;;;;;;6144858;23;20032;-68
2022/10/14 12:37:36;;;;;;;4.43;2.33;;;;;;;;;;6123957;23;20002;-69
2022/10/14 12:40:23;;;;;;;3.35;1.92;;;;;;;;;;6144129;23;20001;-68
2022/10/14 12:43:14;;;;;;;5.60;2.72;;;;;;;;;;6151190;23;20001;-71
2022/10/14 12:46:17;;;;;;;4.88;1.73;;;;;;;;;;6144843;23;20009;-68
2022/10/14 12:49:04;;;;;;;4.20;1.70;;;;;;;;;;6144396;22;20013;-78
2022/10/14 12:51:54;;;;;;;2.78;1.77;;;;;;;;;;6124125;23;20341;-78
2022/10/14 12:54:45;;;;;;;4.53;2.17;;;;;;;;;;6144714;23;20061;-76
2022/10/14 12:57:31;;;;;;;4.43;2.33;;;;;;;;;;6142925;23;20009;-75
2022/10/14 13:00:20;;;;;;;4.07;1.65;;;;;;;;;;6142955;23;20314;-77
2022/10/14 13:03:15;;;;;;;2.38;1.70;;;;;;;;;;6122891;23;20006;-76
2022/10/14 13:06:19;;;;;;;4.28;1.92;;;;;;;;;;6143080;23;20317;-78
2022/10/14 13:09:11;;;;;;;3.97;1.90;;;;;;;;;;6125248;23;20071;-71
2022/10/14 13:11:56;;;;;;;3.25;1.70;;;;;;;;;;6145937;23;20156;-68
2022/10/14 13:14:53;;;;;;;5.03;2.00;;;;;;;;;;6152639;23;20004;-69
2022/10/14 13:17:44;;;;;;;3.80;2.40;;;;;;;;;;6145569;23;20020;-67
2022/10/14 13:20:32;;;;;;;8.02;2.10;;;;;;;;;;6145739;23;20389;-66
2022/10/14 13:23:46;;;;;;;1.70;1.48;;;;;;;;;;6147062;23;20084;-69
2022/10/14 13:26:32;;;;;;;2.30;1.60;;;;;;;;;;6148066;23;20461;-71
2022/10/14 13:29:20;;;;;;;3.97;1.75;;;;;;;;;;6145721;23;20008;-71
2022/10/14 13:32:24;;;;;;;3.05;1.63;;;;;;;;;;6146062;23;20025;-73
2022/10/14 13:35:18;;;;;;;3.97;1.70;;;;;;;;;;6124357;23;20688;-72
2022/10/14 13:38:12;;;;;;;4.10;1.85;;;;;;;;;;6146158;23;20010;-69
2022/10/14 13:40:58;;;;;;;2.22;1.70;;;;;;;;;;6144466;23;20025;-71
2022/10/14 13:43:43;;;;;;;2.28;1.50;;;;;;;;;;6145454;23;20010;-79
2022/10/14 13:46:37;;;;;;;2.53;1.63;;;;;;;;;;6152115;23;19990;-78
2022/10/14 13:49:26;;;;;;;3.17;1.58;;;;;;;;;;6145421;22;20009;-80
2022/10/14 13:52:17;;;;;;;2.95;1.55;;;;;;;;;;6143934;23;20024;-76
2022/10/14 13:55:21;;;;;;;7.28;2.00;;;;;;;;;;6145228;23;20020;-76
2022/10/14 13:58:10;;;;;;;12.00;1.95;;;;;;;;;;6145241;23;20080;-77
2022/10/14 14:00:59;;;;;;;6.95;1.65;;;;;;;;;;6145199;22;20066;-74
2022/10/14 14:03:45;;;;;;;2.28;1.30;;;;;;;;;;6144314;23;20112;-76
2022/10/14 14:06:31;;;;;;;3.90;1.40;;;;;;;;;;6145111;23;20089;-72
2022/10/14 14:09:18;;;;;;;4.38;1.60;;;;;;;;;;6145788;23;20029;-71
2022/10/14 14:12:04;;;;;;;3.70;1.60;;;;;;;;;;6144107;23;20055;-70
2022/10/14 14:14:51;;;;;;;5.57;1.80;;;;;;;;;;6145560;23;20013;-71
2022/10/14 14:17:36;;;;;;;5.22;1.60;;;;;;;;;;6149426;23;19993;-73
2022/10/14 14:20:23;;;;;;;4.78;1.45;;;;;;;;;;6147544;23;20017;-76
2022/10/14 14:23:10;;;;;;;4.07;1.80;;;;;;;;;;6126000;23;20001;-71
2022/10/14 14:25:56;;;;;;;7.50;1.75;;;;;;;;;;6145318;23;20374;-71
2022/10/14 14:28:43;;;;;;;6.60;2.30;;;;;;;;;;6145780;23;20056;-72
2022/10/14 14:31:29;;;;;;;6.60;1.50;;;;;;;;;;6141616;23;20006;-70
2022/10/14 14:34:15;;;;;;;4.85;2.60;;;;;;;;;;6143222;23;20063;-64
2022/10/14 14:37:00;;;;;;;10.95;3.03;;;;;;;;;;6142628;23;20037;-64
2022/10/14 14:40:21;;;;;;;5.85;2.22;;;;;;;;;;6144030;23;20014;-63
2022/10/14 14:43:08;;;;;;;3.67;1.88;;;;;;;;;;6208927;23;20365;-63
2022/10/14 14:45:53;;;;;;;4.07;2.50;;;;;;;;;;6145794;23;20472;-64
2022/10/14 14:48:39;;;;;;;4.80;2.22;;;;;;;;;;6147205;23;20433;-62
2022/10/14 14:51:27;;;;;;;3.38;2.25;;;;;;;;;;6151531;22;20005;-63
2022/10/14 14:54:17;;;;;;;5.20;2.22;;;;;;;;;;6146605;23;20078;-64
2022/10/14 14:57:02;;;;;;;;;;;;;;;;;;6146196;23;20041;-64
2022/10/14 14:59:53;;;;;;;7.32;2.95;;;;;;;;;;6163075;23;19909;-69
2022/10/14 15:02:39;;;;;;;4.18;2.20;;;;;;;;;;6141759;23;20005;-62
2022/10/14 15:05:24;;;;;;;6.50;2.25;;;;;;;;;;6143129;23;20005;-62
2022/10/14 15:08:21;;;;;;;4.00;2.20;;;;;;;;;;6145403;23;20076;-63
2022/10/14 15:11:07;;;;;;;5.78;2.00;;;;;;;;;;6143170;23;20016;-63
2022/10/14 15:13:54;;;;;;;5.80;1.92;;;;;;;;;;6143853;23;20013;-64
2022/10/14 15:16:40;;;;;;;6.50;1.98;;;;;;;;;;6145896;23;20009;-62
2022/10/14 15:19:30;;;;;;;4.07;1.70;;;;;;;;;;6125797;23;20005;-66
2022/10/14 15:22:15;;;;;;;;;;;;;;;;;;6153940;23;20005;-63
2022/10/14 15:25:07;;;;;;;3.15;2.13;;;;;;;;;;6166546;23;19988;-66
2022/10/14 15:27:53;;;;;;;4.43;1.83;;;;;;;;;;6143343;23;20015;-68
2022/10/14 15:30:38;;;;;;;5.25;2.67;;;;;;;;;;6143308;23;20006;-72
2022/10/14 15:33:25;;;;;;;3.50;1.95;;;;;;;;;;6144817;23;20013;-77
2022/10/14 15:36:10;;;;;;;3.67;1.90;;;;;;;;;;6145490;23;20013;-71
2022/10/14 15:38:57;;;;;;;4.45;1.98;;;;;;;;;;6146422;23;20001;-75
2022/10/14 15:41:42;;;;;;;7.85;1.70;;;;;;;;;;6145943;23;20013;-73
2022/10/14 15:44:28;;;;;;;3.78;1.80;;;;;;;;;;6145430;23;20044;-76
2022/10/14 15:47:19;;;;;;;8.65;2.00;;;;;;;;;;6146790;23;20005;-77
2022/10/14 15:50:13;;;;;;;5.50;1.63;;;;;;;;;;6146278;23;20002;-74
2022/10/14 15:52:59;;;;;;;3.58;1.92;;;;;;;;;;6126439;23;20054;-73
2022/10/14 15:55:44;;;;;;;5.13;2.65;;;;;;;;;;6129503;23;20031;-73
2022/10/14 15:58:32;;;;;;;15.95;3.92;;;;;;;;;;6212041;23;20014;-74
2022/10/14 16:01:19;;;;;;;5.55;3.28;;;;;;;;;;6144849;23;20002;-74
2022/10/14 16:04:09;;;;;;;7.30;3.20;;;;;;;;;;6146272;23;20013;-72
2022/10/14 16:06:55;;;;;;;16.42;10.43;;;;;;;;;;6145662;23;20001;-73
2022/10/14 16:09:40;;;;;;;29.10;23.35;;;;;;;;;;6125008;23;20010;-75
2022/10/14 16:12:25;;;;;;;27.52;20.85;;;;;;;;;;6123744;23;20025;-75
2022/10/14 16:15:29;;;;;;;65.20;35.35;;;;;;;;;;6144350;23;20001;-69
2022/10/14 16:18:14;;;;;;;11.85;6.72;;;;;;;;;;6124357;23;20010;-69
2022/10/14 16:20:59;;;;;;;10.65;4.28;;;;;;;;;;6143582;23;20006;-69
2022/10/14 16:23:44;;;;;;;10.88;5.07;;;;;;;;;;6143732;23;20002;-70
2022/10/14 16:26:30;;;;;;;8.93;5.93;;;;;;;;;;6151383;23;20078;-69
2022/10/14 16:29:19;;;;;;;7.50;5.57;;;;;;;;;;6143687;23;20036;-81
2022/10/14 16:32:04;;;;;;;6.23;2.73;;;;;;;;;;6143884;23;20041;-72
2022/10/14 16:34:49;;;;;;;13.52;5.35;;;;;;;;;;6124628;23;20445;-73
2022/10/14 16:37:34;;;;;;;6.57;2.42;;;;;;;;;;6142936;23;20071;-74
2022/10/14 16:40:20;;;;;;;3.85;2.25;;;;;;;;;;6123672;23;20005;-73